Catàleg de serveis del Meteocat
Campanya meteocatpedra

Dades de l'estació automàtica Òdena

?
?
Resum diari 22:30 TU
Dades diàries de l'estació meteorològica
Temperatura mitjana 7.5 °C
Temperatura màxima 14.1 °C 13:02 TU
Temperatura mínima 3.5 °C 22:37 TU
Humitat relativa mitjana 78%
Precipitació acumulada 0.0 mm
Ratxa màxima del vent (10 m) 26.6 km/h - 278º 15:17 TU
Pressió atmosfèrica mitjana 1007.4 hPa
Irradiació solar global 6.3 MJ/m2

El tram horari està expressat en Temps Universal (TU). Cal sumar una hora en horari d'hivern i dues en horari d'estiu per passar a l'hora oficial.

Òdena

Metadades estació meteorol´gica
Municipi Òdena
Comarca Anoia
Altitud 333 m
Data alta 31.05.1999
Estat actual Operativa
Dades de període
Període
TU
TM
°C
TX
°C
TN
°C
HRM
%
PPT
mm
VVM (10 m)
km/h
DVM (10 m)
graus
VVX (10 m)
km/h
PM
hPa
RS
W/m2
00:00 - 00:30 8.1 8.7 6.8 72 0.0 6.5 339 15.8 1006.2 0
00:30 - 01:00 6.8 7.6 5.5 78 0.0 4.3 343 9.7 1006.0 0
01:00 - 01:30 4.6 5.3 3.8 86 0.0 2.5 6 8.6 1006.0 0
01:30 - 02:00 6.2 6.8 4.3 81 0.0 5.8 336 9.0 1005.8 0
02:00 - 02:30 6.2 6.9 5.2 80 0.0 5.0 331 8.6 1005.5 0
02:30 - 03:00 4.7 6.6 3.7 85 0.0 2.9 37 5.4 1005.7 0
03:00 - 03:30 5.3 5.5 4.9 86 0.0 4.3 357 7.9 1005.5 0
03:30 - 04:00 5.1 5.5 4.7 87 0.0 6.1 59 11.5 1005.4 0
04:00 - 04:30 5.7 6.1 5.3 85 0.0 5.0 26 13.3 1005.4 0
04:30 - 05:00 5.3 6.1 5.0 86 0.0 3.6 266 15.5 1005.4 0
05:00 - 05:30 6.4 6.6 6.0 82 0.0 9.0 34 19.4 1005.2 0
05:30 - 06:00 6.3 6.7 5.9 82 0.0 3.6 299 14.8 1005.2 0
06:00 - 06:30 6.2 6.7 5.9 83 0.0 4.0 237 10.1 1005.3 0
06:30 - 07:00 6.2 6.3 6.1 85 0.0 6.5 258 9.7 1005.8 2
07:00 - 07:30 6.2 6.3 6.1 86 0.0 2.9 33 7.2 1006.4 16
07:30 - 08:00 6.3 6.3 6.1 84 0.0 6.5 80 16.6 1006.8 16
08:00 - 08:30 6.3 6.6 6.1 83 0.0 6.8 73 13.7 1007.1 37
08:30 - 09:00 6.8 7.1 6.6 80 0.0 5.8 57 12.2 1007.1 68
09:00 - 09:30 8.2 9.3 7.1 77 0.0 2.5 322 6.8 1007.3 183
09:30 - 10:00 8.6 8.8 8.4 74 0.0 1.4 268 5.4 1007.9 67
10:00 - 10:30 8.6 8.7 8.5 76 0.0 3.2 169 6.1 1008.2 88
10:30 - 11:00 8.6 8.8 8.5 76 0.0 1.4 87 6.1 1008.2 87
11:00 - 11:30 9.3 9.8 8.8 73 0.0 0.7 20 4.0 1007.9 149
11:30 - 12:00 10.4 11.4 9.6 71 0.0 2.2 261 4.7 1007.6 258
12:00 - 12:30 11.8 12.9 11.0 67 0.0 3.2 251 8.3 1007.2 378
12:30 - 13:00 12.8 13.7 12.2 63 0.0 4.3 210 11.5 1006.9 488
13:00 - 13:30 13.7 14.1 12.8 58 0.0 9.7 241 18.7 1006.8 401
13:30 - 14:00 13.6 14.1 12.9 59 0.0 14.0 260 23.0 1006.7 401
14:00 - 14:30 12.8 13.3 12.4 61 0.0 14.8 279 20.9 1006.9 333
14:30 - 15:00 12.3 12.6 12.1 61 0.0 11.9 282 20.9 1007.2 258
15:00 - 15:30 12.2 12.6 11.8 61 0.0 18.4 282 26.6 1007.6 178
15:30 - 16:00 11.5 11.8 11.1 65 0.0 11.9 286 19.4 1007.9 99
16:00 - 16:30 10.5 11.1 9.9 70 0.0 7.6 273 15.1 1008.0 32
16:30 - 17:00 9.1 10.0 8.4 74 0.0 2.5 270 8.3 1008.6 0
17:00 - 17:30 7.9 8.3 7.4 79 0.0 2.2 62 5.4 1008.9 0
17:30 - 18:00 7.4 7.9 6.7 81 0.0 1.4 210 4.3 1009.3 0
18:00 - 18:30 6.0 6.8 5.5 86 0.0 3.2 26 5.8 1009.7 0
18:30 - 19:00 6.1 6.7 5.6 87 0.0 4.3 23 7.2 1009.7 0
19:00 - 19:30 5.4 5.7 5.1 89 0.0 1.8 27 6.8 1009.6 0
19:30 - 20:00 5.5 5.9 5.2 86 0.0 3.2 56 9.0 1009.9 0
20:00 - 20:30 5.4 5.7 5.0 86 0.0 2.2 58 5.8 1009.9 0
20:30 - 21:00 5.5 6.0 4.9 84 0.0 3.2 34 5.4 1009.5 0
21:00 - 21:30 5.5 6.0 5.0 81 0.0 3.2 21 6.5 1009.5 0
21:30 - 22:00 4.7 5.5 4.4 83 0.0 2.9 43 6.1 1009.4 0
22:00 - 22:30 4.8 5.2 4.3 83 0.0 2.5 351 5.8 1009.4 0
22:30 - 23:00 3.8 4.4 3.5 86 0.0 3.2 21 7.2 1008.8 0
23:00 - 23:30 4.1 4.3 3.8 85 0.0 2.2 333 9.4 1008.4 0

Les dades en taronja només han passat un control de qualitat automàtic. Resta pendent la seva validació definitiva.